Temp: 8.1°C   Baro: 1033.1mb
  Wind: 8.1mph   Dir: NE (47°)
  Rain: 0.0mm (0.0mm/hr)
  Solar: 193W/m2  Hum: 69%
 
Bath Spa Weather Historical Data
Daily Summary for March 26, 2020 Units:  English    Metric   Both
Next Day »
Daily Weekly Monthly Yearly Custom
  High: Low: Average:
Temperature: 61.9 °F 32.2 °F 47.8 °F
Dew Point: 38.1 °F 25.9 °F 32.9 °F
Humidity: 79% 33% 59%
Wind Speed: 15mph 0mph 3.2mph
Wind Gust: 22mph - -
Wind direction- - East
Pressure: 30.2 in 30.2 in -
Precipitation: 0 in    
Historical Graphs
 
 
Tabular Data for March 26, 2020
Time Temperature Dew Point Pressure Wind direction Wind Speed Wind Gust Humidity Rainfall Rate (Hourly) solar
00:00 33.1 °F 26.6 °F 30.2 in Calm     77% 0 in 0.00 W/m2
00:06 32.7 °F 26.2 °F 30.2 in Calm     77% 0 in 0.00 W/m2
00:10 32.7 °F 26.2 °F 30.2 in Calm     77% 0 in 0.00 W/m2
00:15 33.1 °F 26.6 °F 30.2 in Calm   1 mph 77% 0 in 0.00 W/m2
00:20 33.1 °F 26.6 °F 30.2 in Calm     77% 0 in 0.00 W/m2
00:25 32.7 °F 26.2 °F 30.2 in Calm     77% 0 in 0.00 W/m2
00:30 32.5 °F 26.1 °F 30.2 in Calm     77% 0 in 0.00 W/m2
00:35 32.5 °F 26.1 °F 30.2 in Calm     77% 0 in 0.00 W/m2
00:40 32.5 °F 26.1 °F 30.2 in Calm     77% 0 in 0.00 W/m2
00:45 32.4 °F 25.9 °F 30.2 in Calm     77% 0 in 0.00 W/m2
00:50 32.4 °F 26.2 °F 30.2 in Calm     78% 0 in 0.00 W/m2
00:55 32.2 °F 26.1 °F 30.2 in Calm     78% 0 in 0.00 W/m2
01:00 32.4 °F 26.2 °F 30.2 in Calm     78% 0 in 0.00 W/m2
01:05 32.4 °F 26.2 °F 30.2 in Calm   1 mph 78% 0 in 0.00 W/m2
01:10 32.4 °F 26.6 °F 30.2 in Calm   1 mph 79% 0 in 0.00 W/m2
01:15 32.5 °F 26.8 °F 30.2 in ESE 0.9 mph 1 mph 79% 0 in 0.00 W/m2
01:20 32.7 °F 27 °F 30.2 in SE 0.9 mph 3 mph 79% 0 in 0.00 W/m2
01:25 32.7 °F 26.6 °F 30.2 in SE 2 mph 4 mph 78% 0 in 0.00 W/m2
01:30 33.1 °F 27 °F 30.2 in Calm   4 mph 78% 0 in 0.00 W/m2
01:35 32.9 °F 26.8 °F 30.2 in SE 0.9 mph 1 mph 78% 0 in 0.00 W/m2
01:40 32.7 °F 26.6 °F 30.2 in SE 0.9 mph 3 mph 78% 0 in 0.00 W/m2
01:45 32.5 °F 26.1 °F 30.2 in Calm     77% 0 in 0.00 W/m2
01:50 32.4 °F 26.2 °F 30.2 in SE 0.9 mph 2 mph 78% 0 in 0.00 W/m2
01:55 32.4 °F 26.2 °F 30.2 in Calm   1 mph 78% 0 in 0.00 W/m2
02:00 32.5 °F 26.4 °F 30.2 in SE 0.9 mph 2 mph 78% 0 in 0.00 W/m2
02:05 32.9 °F 26.8 °F 30.2 in Calm   2 mph 78% 0 in 5.00 W/m2
02:10 33.1 °F 27 °F 30.2 in Calm   1 mph 78% 0 in 7.00 W/m2
02:15 33.3 °F 26.8 °F 30.2 in Calm     77% 0 in 9.00 W/m2
02:20 33.4 °F 27 °F 30.2 in Calm     77% 0 in 14.00 W/m2
02:25 33.4 °F 27 °F 30.2 in Calm     77% 0 in 16.00 W/m2
02:30 33.4 °F 26.8 °F 30.2 in SE 2 mph 4 mph 76% 0 in 19.00 W/m2
02:35 34 °F 27.1 °F 30.2 in South 0.9 mph 3 mph 76% 0 in 21.00 W/m2
02:40 34.5 °F 27.5 °F 30.2 in Calm   3 mph 75% 0 in 23.00 W/m2
02:45 34.9 °F 27.1 °F 30.2 in South 0.9 mph 2 mph 73% 0 in 26.00 W/m2
02:50 35.2 °F 27.5 °F 30.2 in Calm   1 mph 73% 0 in 28.00 W/m2
02:55 35.1 °F 27.3 °F 30.2 in Calm   1 mph 73% 0 in 28.00 W/m2
03:00 35.2 °F 27.9 °F 30.2 in South 0.9 mph 3 mph 74% 0 in 33.00 W/m2
03:05 36 °F 27.9 °F 30.2 in South 0.9 mph 1 mph 72% 0 in 35.00 W/m2
03:10 36.1 °F 28 °F 30.2 in South 2 mph 3 mph 72% 0 in 39.00 W/m2
03:16 37.2 °F 29.3 °F 30.2 in Calm     73% 0 in 42.00 W/m2
03:20 38.3 °F 30 °F 30.2 in ENE 2 mph 5 mph 72% 0 in 49.00 W/m2
03:25 39.6 °F 30.6 °F 30.2 in East 2 mph 4 mph 70% 0 in 62.00 W/m2
03:30 40.1 °F 30.7 °F 30.2 in East 0.9 mph 5 mph 69% 0 in 76.00 W/m2
03:35 40.5 °F 30.7 °F 30.2 in ESE 2.9 mph 13 mph 68% 0 in 90.00 W/m2
03:40 40.8 °F 30.7 °F 30.2 in East 2.9 mph 8 mph 67% 0 in 109.00 W/m2
03:45 41.4 °F 31.3 °F 30.2 in East 4.9 mph 5 mph 67% 0 in 127.00 W/m2
03:50 41.5 °F 31.1 °F 30.2 in ESE 0.9 mph 3 mph 66% 0 in 144.00 W/m2
03:55 41.2 °F 31.1 °F 30.2 in SE 0.9 mph 5 mph 67% 0 in 163.00 W/m2
04:01 41.2 °F 30.7 °F 30.2 in Calm   2 mph 66% 0 in 179.00 W/m2
04:05 41.2 °F 31.1 °F 30.2 in SW 0.9 mph 5 mph 67% 0 in 193.00 W/m2
04:10 41.7 °F 31.6 °F 30.2 in NNE 0.9 mph 9 mph 67% 0 in 209.00 W/m2
04:15 42.8 °F 32.9 °F 30.2 in ESE 0.9 mph 10 mph 68% 0 in 225.00 W/m2
04:20 43.3 °F 33.4 °F 30.2 in East 2 mph 6 mph 68% 0 in 234.00 W/m2
04:25 43.5 °F 33.3 °F 30.2 in Calm   3 mph 67% 0 in 244.00 W/m2
04:30 43.2 °F 33.3 °F 30.2 in ESE 4 mph 5 mph 68% 0 in 271.00 W/m2
04:36 42.4 °F 33.1 °F 30.2 in SSE 2 mph 5 mph 69% 0 in 287.00 W/m2
04:40 43.5 °F 34.3 °F 30.2 in ESE 2.9 mph 7 mph 70% 0 in 299.00 W/m2
04:45 43.9 °F 34 °F 30.2 in SE 2.9 mph 6 mph 68% 0 in 315.00 W/m2
04:50 43.2 °F 34 °F 30.2 in SE 4.9 mph 7 mph 70% 0 in 329.00 W/m2
04:55 43.9 °F 34.3 °F 30.2 in SE 2.9 mph 5 mph 69% 0 in 334.00 W/m2
05:00 45 °F 35.1 °F 30.2 in ESE 2.9 mph 6 mph 68% 0 in 362.00 W/m2
05:05 45.9 °F 36 °F 30.2 in SE 2.9 mph 4 mph 68% 0 in 378.00 W/m2
05:10 46.2 °F 36 °F 30.2 in SE 2 mph 3 mph 67% 0 in 394.00 W/m2
05:15 46.6 °F 36.1 °F 30.2 in SE 4 mph 7 mph 67% 0 in 408.00 W/m2
05:20 47.5 °F 36 °F 30.2 in NE 6 mph 7 mph 64% 0 in 432.00 W/m2
05:25 48 °F 36 °F 30.2 in Calm   5 mph 63% 0 in 432.00 W/m2
05:30 48.9 °F 35.6 °F 30.2 in NE 6.9 mph 8 mph 60% 0 in 446.00 W/m2
05:35 48.6 °F 34.9 °F 30.2 in Calm   7 mph 59% 0 in 457.00 W/m2
05:40 49.6 °F 35.4 °F 30.2 in East 6.9 mph 8 mph 58% 0 in 466.00 W/m2
05:45 49.6 °F 35.1 °F 30.2 in ENE 2 mph 8 mph 57% 0 in 476.00 W/m2
05:50 49.8 °F 35.2 °F 30.2 in ESE 2.9 mph 9 mph 57% 0 in 489.00 W/m2
05:55 50.7 °F 36 °F 30.2 in Calm   9 mph 57% 0 in 501.00 W/m2
06:00 50.7 °F 34.7 °F 30.2 in ENE 4 mph 8 mph 54% 0 in 515.00 W/m2
06:05 50.2 °F 35.1 °F 30.2 in East 6.9 mph 10 mph 56% 0 in 522.00 W/m2
06:10 51.1 °F 34.5 °F 30.2 in ENE 2.9 mph 10 mph 53% 0 in 529.00 W/m2
06:15 51.6 °F 35.6 °F 30.2 in ENE 4.9 mph 14 mph 54% 0 in 543.00 W/m2
06:20 50.9 °F 34.9 °F 30.2 in East 8.9 mph 15 mph 54% 0 in 547.00 W/m2
06:25 51.4 °F 36.3 °F 30.2 in NNE 6.9 mph 9 mph 56% 0 in 555.00 W/m2
06:30 52.9 °F 38.1 °F 30.2 in ESE 4 mph 7 mph 57% 0 in 563.00 W/m2
06:35 52.9 °F 37.2 °F 30.2 in ENE 4.9 mph 9 mph 55% 0 in 568.00 W/m2
06:40 53.2 °F 37 °F 30.2 in SE 6 mph 9 mph 54% 0 in 575.00 W/m2
06:45 53.4 °F 36.7 °F 30.2 in ESE 2.9 mph 10 mph 53% 0 in 587.00 W/m2
06:50 53.4 °F 36.7 °F 30.2 in SE 11 mph 15 mph 53% 0 in 589.00 W/m2
06:55 53.8 °F 36.1 °F 30.2 in ESE 8.1 mph 11 mph 51% 0 in 598.00 W/m2
07:00 53.8 °F 36.1 °F 30.2 in SSE 2.9 mph 15 mph 51% 0 in 605.00 W/m2
07:05 53.4 °F 35.8 °F 30.2 in SE 2.9 mph 15 mph 51% 0 in 608.00 W/m2
07:10 54.7 °F 36.3 °F 30.2 in NE 8.1 mph 15 mph 50% 0 in 613.00 W/m2
07:15 54.7 °F 36.3 °F 30.2 in ENE 8.1 mph 12 mph 50% 0 in 612.00 W/m2
07:20 54.9 °F 36.5 °F 30.2 in NNE 4.9 mph 9 mph 50% 0 in 622.00 W/m2
07:25 53.8 °F 35.6 °F 30.2 in NE 8.1 mph 14 mph 50% 0 in 626.00 W/m2
07:30 54.7 °F 36.3 °F 30.2 in East 6 mph 10 mph 50% 0 in 633.00 W/m2
07:35 55.9 °F 36.5 °F 30.2 in East 2.9 mph 5 mph 48% 0 in 629.00 W/m2
07:40 56.1 °F 36.1 °F 30.2 in NNE 4 mph 10 mph 47% 0 in 638.00 W/m2
07:45 57.4 °F 36.7 °F 30.2 in East 8.1 mph 12 mph 46% 0 in 640.00 W/m2
07:50 57.9 °F 36.1 °F 30.2 in ESE 4.9 mph 13 mph 44% 0 in 645.00 W/m2
07:55 56.8 °F 35.8 °F 30.2 in ENE 8.9 mph 13 mph 45% 0 in 649.00 W/m2
08:00 57.7 °F 35.4 °F 30.2 in ENE 2.9 mph 7 mph 43% 0 in 645.00 W/m2
08:05 57.6 °F 35.2 °F 30.2 in East 10.1 mph 13 mph 43% 0 in 656.00 W/m2
08:10 57 °F 34.7 °F 30.2 in East 4 mph 13 mph 43% 0 in 652.00 W/m2
08:15 57.7 °F 34.2 °F 30.2 in ESE 8.9 mph 12 mph 41% 0 in 657.00 W/m2
08:20 57.4 °F 33.8 °F 30.2 in East 6.9 mph 17 mph 41% 0 in 657.00 W/m2
08:25 56.8 °F 34 °F 30.2 in NE 11 mph 12 mph 42% 0 in 656.00 W/m2
08:30 58.6 °F 35.1 °F 30.2 in ENE 4 mph 11 mph 41% 0 in 663.00 W/m2
08:35 59.2 °F 34.9 °F 30.2 in ENE 2.9 mph 10 mph 40% 0 in 652.00 W/m2
08:40 58.8 °F 35.2 °F 30.2 in ENE 8.1 mph 11 mph 41% 0 in 656.00 W/m2
08:45 57.9 °F 35.6 °F 30.2 in East 4.9 mph 8 mph 43% 0 in 652.00 W/m2
08:50 58.6 °F 33.8 °F 30.2 in ESE 8.1 mph 13 mph 39% 0 in 650.00 W/m2
08:55 59.2 °F 34.2 °F 30.2 in NE 2 mph 22 mph 39% 0 in 656.00 W/m2
09:00 58.6 °F 34.3 °F 30.2 in NE 11 mph 16 mph 40% 0 in 650.00 W/m2
09:05 59.5 °F 35.2 °F 30.2 in ESE 2.9 mph 7 mph 40% 0 in 647.00 W/m2
09:10 60.3 °F 35.2 °F 30.2 in ENE 2.9 mph 8 mph 39% 0 in 642.00 W/m2
09:15 61 °F 35.2 °F 30.2 in ESE 0.9 mph 7 mph 38% 0 in 638.00 W/m2
09:20 61 °F 34.5 °F 30.2 in East 10.1 mph 12 mph 37% 0 in 642.00 W/m2
09:25 61.9 °F 36 °F 30.2 in North 2.9 mph 10 mph 38% 0 in 636.00 W/m2
09:30 61 °F 33.8 °F 30.2 in ENE 8.9 mph 15 mph 36% 0 in 628.00 W/m2
09:35 61.2 °F 34.7 °F 30.2 in ESE 8.1 mph 10 mph 37% 0 in 626.00 W/m2
09:40 60.6 °F 34.9 °F 30.2 in NE 4.9 mph 12 mph 38% 0 in 615.00 W/m2
09:45 60.1 °F 34.3 °F 30.2 in ENE 8.9 mph 9 mph 38% 0 in 621.00 W/m2
09:50 61 °F 34.5 °F 30.2 in ESE 10.1 mph 12 mph 37% 0 in 612.00 W/m2
09:55 60.6 °F 33.4 °F 30.2 in NNE 6 mph 11 mph 36% 0 in 605.00 W/m2
10:00 60.6 °F 32.9 °F 30.2 in East 4.9 mph 14 mph 35% 0 in 598.00 W/m2
10:05 61.2 °F 34.7 °F 30.2 in ESE 6.9 mph 13 mph 37% 0 in 592.00 W/m2
10:10 60.6 °F 33.4 °F 30.2 in NNE 4.9 mph 9 mph 36% 0 in 585.00 W/m2
10:15 60.6 °F 32.9 °F 30.2 in NE 10.1 mph 14 mph 35% 0 in 577.00 W/m2
10:20 59.9 °F 31.5 °F 30.2 in ENE 6 mph 15 mph 34% 0 in 570.00 W/m2
10:25 60.3 °F 33.3 °F 30.2 in ENE 8.9 mph 9 mph 36% 0 in 559.00 W/m2
10:30 61.2 °F 34 °F 30.2 in ESE 8.9 mph 11 mph 36% 0 in 552.00 W/m2
10:35 60.1 °F 32.4 °F 30.2 in East 2.9 mph 10 mph 35% 0 in 520.00 W/m2
10:40 60.4 °F 32.7 °F 30.2 in SSE 4.9 mph 12 mph 35% 0 in 540.00 W/m2
10:45 60.8 °F 33.6 °F 30.2 in NE 4.9 mph 16 mph 36% 0 in 527.00 W/m2
10:50 60.3 °F 33.3 °F 30.2 in East 4 mph 16 mph 36% 0 in 522.00 W/m2
10:55 60.6 °F 34.2 °F 30.2 in ESE 10.1 mph 10 mph 37% 0 in 508.00 W/m2
11:00 61.3 °F 34.2 °F 30.2 in NE 2.9 mph 9 mph 36% 0 in 501.00 W/m2
11:05 60.1 °F 33.1 °F 30.2 in East 2.9 mph 15 mph 36% 0 in 489.00 W/m2
11:10 59.9 °F 32.2 °F 30.2 in NE 4.9 mph 14 mph 35% 0 in 483.00 W/m2
11:15 60.1 °F 33.8 °F 30.2 in East 10.1 mph 11 mph 37% 0 in 475.00 W/m2
11:20 60.6 °F 34.2 °F 30.2 in ESE 15 mph 15 mph 37% 0 in 469.00 W/m2
11:25 59.7 °F 32 °F 30.2 in NE 8.9 mph 12 mph 35% 0 in 452.00 W/m2
11:30 60.1 °F 33.8 °F 30.2 in ENE 2 mph 9 mph 37% 0 in 369.00 W/m2
11:35 60.3 °F 33.8 °F 30.2 in NE 2.9 mph 4 mph 37% 0 in 378.00 W/m2
11:40 60.4 °F 33.4 °F 30.2 in NE 2 mph 7 mph 36% 0 in 418.00 W/m2
11:45 60.3 °F 32.5 °F 30.2 in NE 4.9 mph 5 mph 35% 0 in 413.00 W/m2
11:50 59.7 °F 32.7 °F 30.2 in NE 12.1 mph 14 mph 36% 0 in 401.00 W/m2
11:55 59.9 °F 31.5 °F 30.2 in East 6.9 mph 13 mph 34% 0 in 396.00 W/m2
12:00 60.1 °F 30.9 °F 30.2 in South 4.9 mph 14 mph 33% 0 in 383.00 W/m2
12:05 59.9 °F 31.5 °F 30.2 in ENE 4.9 mph 14 mph 34% 0 in 373.00 W/m2
12:11 59.7 °F 31.3 °F 30.2 in East 6.9 mph 10 mph 34% 0 in 367.00 W/m2
12:15 60.1 °F 32.4 °F 30.2 in NE 4.9 mph 13 mph 35% 0 in 362.00 W/m2
12:20 60.1 °F 32.4 °F 30.2 in East 12.1 mph 18 mph 35% 0 in 352.00 W/m2
12:25 59.5 °F 31.1 °F 30.2 in NE 6 mph 16 mph 34% 0 in 343.00 W/m2
12:30 59.4 °F 32.4 °F 30.2 in ENE 6 mph 18 mph 36% 0 in 311.00 W/m2
12:36 59.5 °F 33.3 °F 30.2 in ESE 2.9 mph 9 mph 37% 0 in 292.00 W/m2
12:40 59.5 °F 31.8 °F 30.2 in ESE 4.9 mph 11 mph 35% 0 in 278.00 W/m2
12:45 59.5 °F 32.5 °F 30.2 in ESE 8.1 mph 10 mph 36% 0 in 258.00 W/m2
12:50 59.5 °F 33.3 °F 30.2 in ESE 4.9 mph 7 mph 37% 0 in 188.00 W/m2
12:55 59.4 °F 33.1 °F 30.2 in East 2.9 mph 10 mph 37% 0 in 179.00 W/m2
13:00 59.4 °F 33.8 °F 30.2 in NE 6 mph 6 mph 38% 0 in 188.00 W/m2
13:06 59.2 °F 33.6 °F 30.2 in East 6.9 mph 10 mph 38% 0 in 181.00 W/m2
13:10 59.2 °F 33.6 °F 30.2 in ENE 2.9 mph 8 mph 38% 0 in 167.00 W/m2
13:15 59.2 °F 33.6 °F 30.2 in East 8.9 mph 13 mph 38% 0 in 153.00 W/m2
13:20 58.6 °F 33.8 °F 30.2 in NE 8.1 mph 11 mph 39% 0 in 132.00 W/m2
13:25 58.6 °F 34.3 °F 30.2 in Calm   6 mph 40% 0 in 118.00 W/m2
13:30 58.6 °F 34.3 °F 30.2 in ENE 4.9 mph 10 mph 40% 0 in 104.00 W/m2
13:35 58.5 °F 34.2 °F 30.2 in East 4.9 mph 10 mph 40% 0 in 91.00 W/m2
13:40 58.5 °F 34.9 °F 30.2 in NE 8.1 mph 10 mph 41% 0 in 79.00 W/m2
13:45 58.3 °F 34.7 °F 30.2 in ENE 4.9 mph 9 mph 41% 0 in 65.00 W/m2
13:50 57.9 °F 34.9 °F 30.2 in East 4.9 mph 8 mph 42% 0 in 53.00 W/m2
13:55 57.7 °F 34.9 °F 30.2 in ENE 2.9 mph 7 mph 42% 0 in 40.00 W/m2
14:00 57.9 °F 35.6 °F 30.2 in East 2 mph 3 mph 43% 0 in 30.00 W/m2
14:05 57.7 °F 34.9 °F 30.2 in ENE 2 mph 8 mph 42% 0 in 25.00 W/m2
14:10 57.4 °F 34.5 °F 30.2 in North 2.9 mph 8 mph 42% 0 in 19.00 W/m2
14:15 56.8 °F 34.5 °F 30.2 in NE 2 mph 5 mph 43% 0 in 14.00 W/m2
14:20 56.7 °F 34.3 °F 30.2 in ENE 2 mph 3 mph 43% 0 in 12.00 W/m2
14:25 56.1 °F 34.5 °F 30.2 in Calm   2 mph 44% 0 in 9.00 W/m2
14:30 55.9 °F 33.8 °F 30.2 in ENE 4 mph 6 mph 43% 0 in 7.00 W/m2
14:35 55.6 °F 34 °F 30.2 in NE 2.9 mph 8 mph 44% 0 in 5.00 W/m2
14:40 55 °F 33.4 °F 30.2 in ENE 2.9 mph 5 mph 44% 0 in 0.00 W/m2
14:45 54.9 °F 34 °F 30.2 in NE 0.9 mph 4 mph 45% 0 in 0.00 W/m2
14:50 54.7 °F 33.3 °F 30.2 in ENE 2.9 mph 6 mph 44% 0 in 0.00 W/m2
14:55 54.5 °F 33.6 °F 30.2 in NE 0.9 mph 2 mph 45% 0 in 0.00 W/m2
15:00 54.5 °F 34.7 °F 30.2 in NE 2 mph 2 mph 47% 0 in 0.00 W/m2
15:05 54.3 °F 34 °F 30.2 in Calm     46% 0 in 0.00 W/m2
15:10 54.1 °F 34.3 °F 30.2 in NE 0.9 mph 2 mph 47% 0 in 0.00 W/m2
15:15 53.8 °F 34.5 °F 30.2 in Calm   1 mph 48% 0 in 0.00 W/m2
15:20 53.2 °F 34.5 °F 30.2 in Calm     49% 0 in 0.00 W/m2
15:25 52.2 °F 34.5 °F 30.2 in Calm     51% 0 in 0.00 W/m2
15:30 51.3 °F 34.2 °F 30.2 in Calm     52% 0 in 0.00 W/m2
15:35 50.7 °F 34.2 °F 30.2 in Calm   1 mph 53% 0 in 0.00 W/m2
15:40 50.5 °F 34 °F 30.2 in NE 0.9 mph 2 mph 53% 0 in 0.00 W/m2
15:45 50.2 °F 34.2 °F 30.2 in Calm   1 mph 54% 0 in 0.00 W/m2
15:50 50.5 °F 34.5 °F 30.2 in ENE 2 mph 4 mph 54% 0 in 0.00 W/m2
15:55 50.9 °F 34.3 °F 30.2 in Calm   1 mph 53% 0 in 0.00 W/m2
16:00 51.6 °F 38.1 °F 30.2 in ENE 0.9 mph 2 mph 60% 0 in 0.00 W/m2
16:05 52.9 °F 36.1 °F 30.2 in Calm   1 mph 53% 0 in 0.00 W/m2
16:10 52.3 °F 34.7 °F 30.2 in Calm   2 mph 51% 0 in 0.00 W/m2
16:15 51.4 °F 34.9 °F 30.2 in Calm   1 mph 53% 0 in 0.00 W/m2
16:20 50.2 °F 34.2 °F 30.2 in NE 0.9 mph 2 mph 54% 0 in 0.00 W/m2
16:25 49.5 °F 34.3 °F 30.2 in Calm     56% 0 in 0.00 W/m2
16:30 49.3 °F 34.2 °F 30.2 in Calm     56% 0 in 0.00 W/m2
16:41 48.6 °F 34.5 °F 30.2 in NE 0.9 mph 3 mph 58% 0 in 0.00 W/m2
16:45 48.2 °F 34.2 °F 30.2 in Calm   4 mph 58% 0 in 0.00 W/m2
16:50 48 °F 34.3 °F 30.2 in ENE 2 mph 5 mph 59% 0 in 0.00 W/m2
16:55 47.7 °F 34.5 °F 30.2 in Calm     60% 0 in 0.00 W/m2
17:00 47.5 °F 34.3 °F 30.2 in Calm   2 mph 60% 0 in 0.00 W/m2
17:05 47.3 °F 34.9 °F 30.2 in ENE 0.9 mph 2 mph 62% 0 in 0.00 W/m2
17:10 47.1 °F 34.3 °F 30.2 in Calm   3 mph 61% 0 in 0.00 W/m2
17:15 46.9 °F 34.5 °F 30.2 in Calm   1 mph 62% 0 in 0.00 W/m2
17:20 46.6 °F 34.7 °F 30.2 in Calm   2 mph 63% 0 in 0.00 W/m2
17:25 46 °F 34.5 °F 30.2 in Calm     64% 0 in 0.00 W/m2
17:31 45.9 °F 34.3 °F 30.2 in Calm   1 mph 64% 0 in 0.00 W/m2
17:35 45.9 °F 34.7 °F 30.2 in ENE 2 mph 3 mph 65% 0 in 0.00 W/m2
17:40 45.9 °F 34.7 °F 30.2 in ENE 0.9 mph 3 mph 65% 0 in 0.00 W/m2
17:45 45.7 °F 35.1 °F 30.2 in Calm   1 mph 66% 0 in 0.00 W/m2
17:50 45.3 °F 34.7 °F 30.2 in Calm   2 mph 66% 0 in 0.00 W/m2
17:55 45.3 °F 34.7 °F 30.2 in Calm     66% 0 in 0.00 W/m2
18:00 45.1 °F 34.5 °F 30.2 in Calm   1 mph 66% 0 in 0.00 W/m2
18:05 45.1 °F 34.9 °F 30.2 in ENE 0.9 mph 2 mph 67% 0 in 0.00 W/m2
18:10 45.1 °F 34.9 °F 30.2 in Calm   5 mph 67% 0 in 0.00 W/m2
18:15 45.1 °F 34.9 °F 30.2 in ENE 2.9 mph 3 mph 67% 0 in 0.00 W/m2
18:20 45.3 °F 34.7 °F 30.2 in ENE 0.9 mph 3 mph 66% 0 in 0.00 W/m2
18:25 45.3 °F 35.1 °F 30.2 in ENE 2 mph 3 mph 67% 0 in 0.00 W/m2
18:30 45.1 °F 34.5 °F 30.2 in NE 0.9 mph 5 mph 66% 0 in 0.00 W/m2
18:35 45.1 °F 34.5 °F 30.2 in Calm   6 mph 66% 0 in 0.00 W/m2
18:40 45.1 °F 34.5 °F 30.2 in SE 2.9 mph 3 mph 66% 0 in 0.00 W/m2
18:45 45.1 °F 34.5 °F 30.2 in ESE 4 mph 7 mph 66% 0 in 0.00 W/m2
18:50 45 °F 34.3 °F 30.2 in East 2.9 mph 5 mph 66% 0 in 0.00 W/m2
18:55 44.8 °F 34.2 °F 30.2 in ESE 2 mph 8 mph 66% 0 in 0.00 W/m2
19:00 44.8 °F 34.5 °F 30.2 in SE 2.9 mph 5 mph 67% 0 in 0.00 W/m2
19:05 44.4 °F 34.2 °F 30.2 in East 2.9 mph 5 mph 67% 0 in 0.00 W/m2
19:10 44.4 °F 34.5 °F 30.2 in Calm   4 mph 68% 0 in 0.00 W/m2
19:15 44.4 °F 34.9 °F 30.2 in ESE 0.9 mph 3 mph 69% 0 in 0.00 W/m2
19:20 44.2 °F 35.1 °F 30.2 in ENE 2 mph 5 mph 70% 0 in 0.00 W/m2
19:25 44.2 °F 35.1 °F 30.2 in East 2 mph 9 mph 70% 0 in 0.00 W/m2
19:30 44.4 °F 35.2 °F 30.2 in ENE 8.9 mph 12 mph 70% 0 in 0.00 W/m2
19:35 44.2 °F 35.1 °F 30.2 in NE 2.9 mph 13 mph 70% 0 in 0.00 W/m2
19:40 44.2 °F 35.1 °F 30.2 in ENE 2.9 mph 9 mph 70% 0 in 0.00 W/m2
19:45 44.1 °F 35.2 °F 30.2 in East 4.9 mph 11 mph 71% 0 in 0.00 W/m2
19:50 43.7 °F 34.9 °F 30.2 in East 6 mph 14 mph 71% 0 in 0.00 W/m2
19:55 43.3 °F 34.9 °F 30.2 in ENE 6.9 mph 11 mph 72% 0 in 0.00 W/m2
20:00 43.3 °F 34.9 °F 30.2 in Calm   4 mph 72% 0 in 0.00 W/m2
20:05 43 °F 34.9 °F 30.2 in ESE 4 mph 7 mph 73% 0 in 0.00 W/m2
20:10 42.6 °F 34.5 °F 30.2 in ESE 0.9 mph 3 mph 73% 0 in 0.00 W/m2
20:15 42.4 °F 34.3 °F 30.2 in ESE 0.9 mph 5 mph 73% 0 in 0.00 W/m2
20:20 42.1 °F 34 °F 30.2 in SE 4 mph 10 mph 73% 0 in 0.00 W/m2
20:25 41.7 °F 34 °F 30.2 in ESE 4.9 mph 5 mph 74% 0 in 0.00 W/m2
20:30 41.4 °F 33.6 °F 30.2 in ENE 6 mph 6 mph 74% 0 in 0.00 W/m2
20:35 41.2 °F 33.8 °F 30.2 in ESE 2 mph 9 mph 75% 0 in 0.00 W/m2
20:40 41 °F 33.6 °F 30.2 in ENE 4.9 mph 5 mph 75% 0 in 0.00 W/m2
20:45 40.8 °F 33.4 °F 30.2 in NE 6 mph 13 mph 75% 0 in 0.00 W/m2
20:51 40.8 °F 33.4 °F 30.2 in SE 4.9 mph 11 mph 75% 0 in 0.00 W/m2
20:55 40.8 °F 33.4 °F 30.2 in ESE 2.9 mph 13 mph 75% 0 in 0.00 W/m2
21:00 40.6 °F 33.3 °F 30.2 in ESE 4 mph 10 mph 75% 0 in 0.00 W/m2
21:05 40.5 °F 33.1 °F 30.2 in East 2 mph 8 mph 75% 0 in 0.00 W/m2
21:10 40.1 °F 32.9 °F 30.2 in ENE 2.9 mph 9 mph 75% 0 in 0.00 W/m2
21:15 39.9 °F 32.7 °F 30.2 in ENE 12.1 mph 12 mph 75% 0 in 0.00 W/m2
21:20 39.7 °F 32.5 °F 30.2 in NE 8.1 mph 10 mph 75% 0 in 0.00 W/m2
21:25 39.7 °F 32.5 °F 30.2 in NE 6.9 mph 11 mph 75% 0 in 0.00 W/m2
21:30 39.9 °F 32.7 °F 30.2 in NE 2 mph 13 mph 75% 0 in 0.00 W/m2
21:35 39.7 °F 32.5 °F 30.2 in NE 2 mph 10 mph 75% 0 in 0.00 W/m2
21:40 39.7 °F 32.2 °F 30.2 in NE 8.1 mph 9 mph 74% 0 in 0.00 W/m2
21:45 39.6 °F 32 °F 30.2 in ESE 2 mph 5 mph 74% 0 in 0.00 W/m2
21:50 39.6 °F 32.4 °F 30.2 in NE 0.9 mph 6 mph 75% 0 in 0.00 W/m2
21:55 39.4 °F 32.2 °F 30.2 in East 2.9 mph 11 mph 75% 0 in 0.00 W/m2
22:00 39.2 °F 32 °F 30.2 in SE 0.9 mph 3 mph 75% 0 in 0.00 W/m2
22:05 39 °F 31.8 °F 30.2 in East 6 mph 6 mph 75% 0 in 0.00 W/m2
22:10 38.8 °F 31.6 °F 30.2 in East 2 mph 9 mph 75% 0 in 0.00 W/m2
22:15 38.7 °F 31.5 °F 30.2 in ENE 0.9 mph 3 mph 75% 0 in 0.00 W/m2
22:20 38.5 °F 31.6 °F 30.2 in Calm   3 mph 76% 0 in 0.00 W/m2
22:25 38.5 °F 31.6 °F 30.2 in ENE 2 mph 6 mph 76% 0 in 0.00 W/m2
22:30 38.5 °F 31.6 °F 30.2 in ENE 0.9 mph 10 mph 76% 0 in 0.00 W/m2
22:35 38.5 °F 31.6 °F 30.2 in SE 4.9 mph 8 mph 76% 0 in 0.00 W/m2
22:40 38.3 °F 31.5 °F 30.2 in East 2 mph 9 mph 76% 0 in 0.00 W/m2
22:45 38.1 °F 31.3 °F 30.2 in East 4.9 mph 7 mph 76% 0 in 0.00 W/m2
22:50 38.1 °F 31.3 °F 30.2 in NE 2.9 mph 10 mph 76% 0 in 0.00 W/m2
22:55 38.1 °F 31.3 °F 30.2 in NE 2 mph 8 mph 76% 0 in 0.00 W/m2
23:00 38.1 °F 31.3 °F 30.2 in ENE 0.9 mph 14 mph 76% 0 in 0.00 W/m2
23:05 38.3 °F 31.6 °F 30.2 in ENE 4.9 mph 6 mph 77% 0 in 0.00 W/m2
23:10 38.5 °F 31.8 °F 30.2 in NE 2 mph 7 mph 77% 0 in 0.00 W/m2
23:15 38.3 °F 31.6 °F 30.2 in East 2 mph 3 mph 77% 0 in 0.00 W/m2
23:20 38.1 °F 31.6 °F 30.2 in ENE 0.9 mph 5 mph 77% 0 in 0.00 W/m2
23:25 38.1 °F 31.6 °F 30.2 in ENE 0.9 mph 2 mph 77% 0 in 0.00 W/m2
23:30 37.9 °F 31.5 °F 30.2 in ENE 2 mph 5 mph 77% 0 in 0.00 W/m2
23:35 37.9 °F 31.5 °F 30.2 in ENE 4.9 mph 8 mph 77% 0 in 0.00 W/m2
23:40 38.1 °F 31.6 °F 30.2 in NE 11 mph 11 mph 77% 0 in 0.00 W/m2
23:45 37.9 °F 31.5 °F 30.2 in ENE 2 mph 8 mph 77% 0 in 0.00 W/m2
23:50 37.9 °F 31.5 °F 30.2 in ENE 4 mph 9 mph 77% 0 in 0.00 W/m2
23:55 37.9 °F 31.5 °F 30.2 in ENE 2.9 mph 7 mph 77% 0 in 0.00 W/m2